sensor_id;sensor_type;location;lat;lon;timestamp;P1;durP1;ratioP1;P2;durP2;ratioP2
15878;SDS011;61999;51.514;14.614;2023-02-25T00:01:41;12.23;;;8.23;;
15878;SDS011;61999;51.514;14.614;2023-02-25T00:04:26;12.47;;;8.47;;
15878;SDS011;61999;51.514;14.614;2023-02-25T00:06:55;12.40;;;8.60;;
15878;SDS011;61999;51.514;14.614;2023-02-25T00:09:24;9.23;;;6.23;;
15878;SDS011;61999;51.514;14.614;2023-02-25T00:11:52;11.70;;;8.47;;
15878;SDS011;61999;51.514;14.614;2023-02-25T00:14:20;12.27;;;8.07;;
15878;SDS011;61999;51.514;14.614;2023-02-25T00:16:48;6.43;;;4.33;;
15878;SDS011;61999;51.514;14.614;2023-02-25T00:19:16;8.80;;;6.57;;
15878;SDS011;61999;51.514;14.614;2023-02-25T00:21:46;13.23;;;9.60;;
15878;SDS011;61999;51.514;14.614;2023-02-25T00:24:13;13.60;;;8.43;;
15878;SDS011;61999;51.514;14.614;2023-02-25T00:26:42;11.60;;;7.80;;
15878;SDS011;61999;51.514;14.614;2023-02-25T00:29:10;11.33;;;7.97;;
15878;SDS011;61999;51.514;14.614;2023-02-25T00:31:38;10.43;;;6.40;;
15878;SDS011;61999;51.514;14.614;2023-02-25T00:34:07;8.90;;;5.87;;
15878;SDS011;61999;51.514;14.614;2023-02-25T00:36:35;11.63;;;8.37;;
15878;SDS011;61999;51.514;14.614;2023-02-25T00:39:04;10.23;;;7.00;;
15878;SDS011;61999;51.514;14.614;2023-02-25T00:41:34;10.07;;;7.10;;
15878;SDS011;61999;51.514;14.614;2023-02-25T00:44:02;10.73;;;7.20;;
15878;SDS011;61999;51.514;14.614;2023-02-25T00:46:31;10.27;;;6.77;;
15878;SDS011;61999;51.514;14.614;2023-02-25T00:48:59;6.50;;;3.20;;
15878;SDS011;61999;51.514;14.614;2023-02-25T00:51:29;12.67;;;8.27;;
15878;SDS011;61999;51.514;14.614;2023-02-25T00:53:59;10.80;;;5.50;;
15878;SDS011;61999;51.514;14.614;2023-02-25T00:56:28;11.77;;;7.23;;
15878;SDS011;61999;51.514;14.614;2023-02-25T00:58:58;6.50;;;4.30;;
15878;SDS011;61999;51.514;14.614;2023-02-25T01:01:26;5.30;;;4.40;;
15878;SDS011;61999;51.514;14.614;2023-02-25T01:03:59;9.23;;;6.03;;
15878;SDS011;61999;51.514;14.614;2023-02-25T01:06:28;10.93;;;6.87;;
15878;SDS011;61999;51.514;14.614;2023-02-25T01:08:58;5.90;;;3.47;;
15878;SDS011;61999;51.514;14.614;2023-02-25T01:11:27;8.07;;;4.87;;
15878;SDS011;61999;51.514;14.614;2023-02-25T01:14:01;8.60;;;6.03;;
15878;SDS011;61999;51.514;14.614;2023-02-25T01:16:33;10.60;;;7.53;;
15878;SDS011;61999;51.514;14.614;2023-02-25T01:19:02;10.90;;;6.67;;
15878;SDS011;61999;51.514;14.614;2023-02-25T01:21:34;10.70;;;6.33;;
15878;SDS011;61999;51.514;14.614;2023-02-25T01:24:07;15.40;;;8.20;;
15878;SDS011;61999;51.514;14.614;2023-02-25T01:26:48;10.27;;;6.10;;
15878;SDS011;61999;51.514;14.614;2023-02-25T01:29:20;5.57;;;4.03;;
15878;SDS011;61999;51.514;14.614;2023-02-25T01:31:51;9.03;;;6.17;;
15878;SDS011;61999;51.514;14.614;2023-02-25T01:34:21;11.43;;;5.90;;
15878;SDS011;61999;51.514;14.614;2023-02-25T01:36:50;11.13;;;5.10;;
15878;SDS011;61999;51.514;14.614;2023-02-25T01:39:18;6.37;;;4.10;;
15878;SDS011;61999;51.514;14.614;2023-02-25T01:41:49;11.07;;;6.20;;
15878;SDS011;61999;51.514;14.614;2023-02-25T01:44:19;12.87;;;6.40;;
15878;SDS011;61999;51.514;14.614;2023-02-25T01:46:50;8.40;;;2.23;;
15878;SDS011;61999;51.514;14.614;2023-02-25T01:49:22;10.47;;;4.63;;
15878;SDS011;61999;51.514;14.614;2023-02-25T01:51:57;9.83;;;6.47;;
15878;SDS011;61999;51.514;14.614;2023-02-25T01:54:30;8.87;;;5.97;;
15878;SDS011;61999;51.514;14.614;2023-02-25T01:57:04;12.43;;;6.87;;
15878;SDS011;61999;51.514;14.614;2023-02-25T01:59:35;10.27;;;6.17;;
15878;SDS011;61999;51.514;14.614;2023-02-25T02:02:06;9.40;;;5.40;;
15878;SDS011;61999;51.514;14.614;2023-02-25T02:04:35;11.27;;;6.90;;
15878;SDS011;61999;51.514;14.614;2023-02-25T02:07:07;5.20;;;4.17;;
15878;SDS011;61999;51.514;14.614;2023-02-25T02:09:35;7.70;;;4.40;;
15878;SDS011;61999;51.514;14.614;2023-02-25T02:12:06;4.73;;;3.03;;
15878;SDS011;61999;51.514;14.614;2023-02-25T02:14:36;6.20;;;3.63;;
15878;SDS011;61999;51.514;14.614;2023-02-25T02:17:12;5.43;;;3.23;;
15878;SDS011;61999;51.514;14.614;2023-02-25T02:19:55;4.90;;;3.73;;
15878;SDS011;61999;51.514;14.614;2023-02-25T02:22:43;4.43;;;3.30;;
15878;SDS011;61999;51.514;14.614;2023-02-25T02:25:40;4.03;;;3.27;;
15878;SDS011;61999;51.514;14.614;2023-02-25T02:29:00;7.57;;;4.03;;
15878;SDS011;61999;51.514;14.614;2023-02-25T02:32:14;4.80;;;2.77;;
15878;SDS011;61999;51.514;14.614;2023-02-25T02:34:58;4.87;;;3.90;;
15878;SDS011;61999;51.514;14.614;2023-02-25T02:37:41;3.47;;;2.93;;
15878;SDS011;61999;51.514;14.614;2023-02-25T02:40:22;9.37;;;4.10;;
15878;SDS011;61999;51.514;14.614;2023-02-25T02:43:07;9.53;;;4.63;;
15878;SDS011;61999;51.514;14.614;2023-02-25T02:45:48;7.13;;;4.30;;
15878;SDS011;61999;51.514;14.614;2023-02-25T02:48:28;11.73;;;4.33;;
15878;SDS011;61999;51.514;14.614;2023-02-25T02:51:04;4.77;;;3.00;;
15878;SDS011;61999;51.514;14.614;2023-02-25T02:53:38;6.30;;;2.90;;
15878;SDS011;61999;51.514;14.614;2023-02-25T02:56:12;6.13;;;2.17;;
15878;SDS011;61999;51.514;14.614;2023-02-25T02:58:45;4.50;;;2.17;;
15878;SDS011;61999;51.514;14.614;2023-02-25T03:01:20;6.30;;;3.20;;
15878;SDS011;61999;51.514;14.614;2023-02-25T03:04:01;8.47;;;3.73;;
15878;SDS011;61999;51.514;14.614;2023-02-25T03:06:34;12.73;;;4.20;;
15878;SDS011;61999;51.514;14.614;2023-02-25T03:09:06;9.43;;;4.63;;
15878;SDS011;61999;51.514;14.614;2023-02-25T03:11:40;5.53;;;3.03;;
15878;SDS011;61999;51.514;14.614;2023-02-25T03:14:09;2.83;;;2.23;;
15878;SDS011;61999;51.514;14.614;2023-02-25T03:16:39;9.83;;;4.20;;
15878;SDS011;61999;51.514;14.614;2023-02-25T03:19:15;6.17;;;2.37;;
15878;SDS011;61999;51.514;14.614;2023-02-25T03:21:49;5.17;;;3.30;;
15878;SDS011;61999;51.514;14.614;2023-02-25T03:24:29;6.50;;;3.43;;
15878;SDS011;61999;51.514;14.614;2023-02-25T03:27:19;5.93;;;3.77;;
15878;SDS011;61999;51.514;14.614;2023-02-25T03:29:53;6.77;;;3.90;;
15878;SDS011;61999;51.514;14.614;2023-02-25T03:32:31;7.67;;;3.97;;
15878;SDS011;61999;51.514;14.614;2023-02-25T03:35:05;10.53;;;4.30;;
15878;SDS011;61999;51.514;14.614;2023-02-25T03:37:39;5.20;;;3.57;;
15878;SDS011;61999;51.514;14.614;2023-02-25T03:40:12;6.13;;;3.50;;
15878;SDS011;61999;51.514;14.614;2023-02-25T03:42:45;5.47;;;4.00;;
15878;SDS011;61999;51.514;14.614;2023-02-25T03:45:20;5.40;;;3.63;;
15878;SDS011;61999;51.514;14.614;2023-02-25T03:47:50;7.33;;;3.30;;
15878;SDS011;61999;51.514;14.614;2023-02-25T03:50:24;4.47;;;2.90;;
15878;SDS011;61999;51.514;14.614;2023-02-25T03:52:57;2.03;;;1.17;;
15878;SDS011;61999;51.514;14.614;2023-02-25T03:55:25;2.37;;;1.93;;
15878;SDS011;61999;51.514;14.614;2023-02-25T03:57:54;2.90;;;2.03;;
15878;SDS011;61999;51.514;14.614;2023-02-25T04:00:23;1.97;;;1.67;;
15878;SDS011;61999;51.514;14.614;2023-02-25T04:02:54;3.13;;;2.00;;
15878;SDS011;61999;51.514;14.614;2023-02-25T04:05:24;3.30;;;2.00;;
15878;SDS011;61999;51.514;14.614;2023-02-25T04:07:53;2.27;;;1.37;;
15878;SDS011;61999;51.514;14.614;2023-02-25T04:10:23;3.13;;;1.60;;
15878;SDS011;61999;51.514;14.614;2023-02-25T04:12:51;2.70;;;2.00;;
15878;SDS011;61999;51.514;14.614;2023-02-25T04:15:20;3.20;;;1.67;;
15878;SDS011;61999;51.514;14.614;2023-02-25T04:17:49;2.27;;;2.00;;
15878;SDS011;61999;51.514;14.614;2023-02-25T04:20:17;3.10;;;1.93;;
15878;SDS011;61999;51.514;14.614;2023-02-25T04:22:47;3.03;;;1.83;;
15878;SDS011;61999;51.514;14.614;2023-02-25T04:25:15;4.67;;;2.27;;
15878;SDS011;61999;51.514;14.614;2023-02-25T04:27:43;4.03;;;2.40;;
15878;SDS011;61999;51.514;14.614;2023-02-25T04:30:12;2.10;;;1.50;;
15878;SDS011;61999;51.514;14.614;2023-02-25T04:32:41;4.23;;;2.27;;
15878;SDS011;61999;51.514;14.614;2023-02-25T04:35:09;5.33;;;1.93;;
15878;SDS011;61999;51.514;14.614;2023-02-25T04:37:39;4.63;;;1.70;;
15878;SDS011;61999;51.514;14.614;2023-02-25T04:40:12;3.90;;;2.40;;
15878;SDS011;61999;51.514;14.614;2023-02-25T04:42:42;1.10;;;1.00;;
15878;SDS011;61999;51.514;14.614;2023-02-25T04:45:11;5.47;;;2.63;;
15878;SDS011;61999;51.514;14.614;2023-02-25T04:47:40;2.07;;;1.97;;
15878;SDS011;61999;51.514;14.614;2023-02-25T04:50:10;2.13;;;1.00;;
15878;SDS011;61999;51.514;14.614;2023-02-25T04:52:38;1.43;;;1.30;;
15878;SDS011;61999;51.514;14.614;2023-02-25T04:55:07;3.83;;;2.00;;
15878;SDS011;61999;51.514;14.614;2023-02-25T04:57:37;2.57;;;1.77;;
15878;SDS011;61999;51.514;14.614;2023-02-25T05:00:08;1.47;;;1.33;;
15878;SDS011;61999;51.514;14.614;2023-02-25T05:02:45;2.10;;;1.50;;
15878;SDS011;61999;51.514;14.614;2023-02-25T05:05:14;1.97;;;1.70;;
15878;SDS011;61999;51.514;14.614;2023-02-25T05:07:43;2.80;;;1.30;;
15878;SDS011;61999;51.514;14.614;2023-02-25T05:10:12;2.57;;;1.87;;
15878;SDS011;61999;51.514;14.614;2023-02-25T05:12:42;2.60;;;2.33;;
15878;SDS011;61999;51.514;14.614;2023-02-25T05:15:10;4.07;;;2.20;;
15878;SDS011;61999;51.514;14.614;2023-02-25T05:17:38;2.27;;;1.67;;
15878;SDS011;61999;51.514;14.614;2023-02-25T05:20:09;3.70;;;1.73;;
15878;SDS011;61999;51.514;14.614;2023-02-25T05:22:38;4.27;;;1.50;;
15878;SDS011;61999;51.514;14.614;2023-02-25T05:25:07;2.63;;;1.60;;
15878;SDS011;61999;51.514;14.614;2023-02-25T05:27:36;3.13;;;2.00;;
15878;SDS011;61999;51.514;14.614;2023-02-25T05:30:06;3.77;;;2.33;;
15878;SDS011;61999;51.514;14.614;2023-02-25T05:32:36;3.77;;;2.13;;
15878;SDS011;61999;51.514;14.614;2023-02-25T05:35:05;3.67;;;1.70;;
15878;SDS011;61999;51.514;14.614;2023-02-25T05:37:36;3.87;;;1.63;;
15878;SDS011;61999;51.514;14.614;2023-02-25T05:40:05;1.63;;;1.53;;
15878;SDS011;61999;51.514;14.614;2023-02-25T05:42:35;2.23;;;1.60;;
15878;SDS011;61999;51.514;14.614;2023-02-25T05:45:04;2.83;;;1.40;;
15878;SDS011;61999;51.514;14.614;2023-02-25T05:47:34;2.17;;;1.50;;
15878;SDS011;61999;51.514;14.614;2023-02-25T05:50:03;3.17;;;1.77;;
15878;SDS011;61999;51.514;14.614;2023-02-25T05:52:32;3.43;;;1.47;;
15878;SDS011;61999;51.514;14.614;2023-02-25T05:55:00;1.67;;;0.97;;
15878;SDS011;61999;51.514;14.614;2023-02-25T05:57:28;1.63;;;1.53;;
15878;SDS011;61999;51.514;14.614;2023-02-25T05:59:56;0.93;;;0.90;;
15878;SDS011;61999;51.514;14.614;2023-02-25T06:02:26;2.27;;;1.40;;
15878;SDS011;61999;51.514;14.614;2023-02-25T06:04:54;2.93;;;1.40;;
15878;SDS011;61999;51.514;14.614;2023-02-25T06:07:22;1.30;;;1.20;;
15878;SDS011;61999;51.514;14.614;2023-02-25T06:09:50;0.87;;;0.87;;
15878;SDS011;61999;51.514;14.614;2023-02-25T06:12:18;1.10;;;1.10;;
15878;SDS011;61999;51.514;14.614;2023-02-25T06:14:46;1.67;;;1.27;;
15878;SDS011;61999;51.514;14.614;2023-02-25T06:17:14;1.03;;;0.93;;
15878;SDS011;61999;51.514;14.614;2023-02-25T06:19:44;0.70;;;0.70;;
15878;SDS011;61999;51.514;14.614;2023-02-25T06:22:13;0.90;;;0.90;;
15878;SDS011;61999;51.514;14.614;2023-02-25T06:24:41;1.57;;;1.20;;
15878;SDS011;61999;51.514;14.614;2023-02-25T06:27:09;0.97;;;0.97;;
15878;SDS011;61999;51.514;14.614;2023-02-25T06:29:39;1.43;;;1.10;;
15878;SDS011;61999;51.514;14.614;2023-02-25T06:32:08;2.43;;;1.50;;
15878;SDS011;61999;51.514;14.614;2023-02-25T06:34:38;1.40;;;1.10;;
15878;SDS011;61999;51.514;14.614;2023-02-25T06:37:08;2.40;;;1.33;;
15878;SDS011;61999;51.514;14.614;2023-02-25T06:39:36;1.80;;;1.70;;
15878;SDS011;61999;51.514;14.614;2023-02-25T06:42:08;4.47;;;1.63;;
15878;SDS011;61999;51.514;14.614;2023-02-25T06:44:36;2.03;;;1.13;;
15878;SDS011;61999;51.514;14.614;2023-02-25T06:47:04;0.90;;;0.90;;
15878;SDS011;61999;51.514;14.614;2023-02-25T06:49:33;1.53;;;1.43;;
15878;SDS011;61999;51.514;14.614;2023-02-25T06:52:01;1.70;;;1.60;;
15878;SDS011;61999;51.514;14.614;2023-02-25T06:54:30;2.30;;;1.17;;
15878;SDS011;61999;51.514;14.614;2023-02-25T06:56:58;0.70;;;0.70;;
15878;SDS011;61999;51.514;14.614;2023-02-25T06:59:26;1.17;;;1.17;;
15878;SDS011;61999;51.514;14.614;2023-02-25T07:01:54;1.20;;;1.10;;
15878;SDS011;61999;51.514;14.614;2023-02-25T07:04:22;1.17;;;1.10;;
15878;SDS011;61999;51.514;14.614;2023-02-25T07:06:51;0.90;;;0.90;;
15878;SDS011;61999;51.514;14.614;2023-02-25T07:09:19;2.30;;;0.80;;
15878;SDS011;61999;51.514;14.614;2023-02-25T07:11:48;1.17;;;1.10;;
15878;SDS011;61999;51.514;14.614;2023-02-25T07:14:16;0.83;;;0.83;;
15878;SDS011;61999;51.514;14.614;2023-02-25T07:16:44;0.80;;;0.80;;
15878;SDS011;61999;51.514;14.614;2023-02-25T07:19:11;2.63;;;1.00;;
15878;SDS011;61999;51.514;14.614;2023-02-25T07:21:41;3.00;;;1.03;;
15878;SDS011;61999;51.514;14.614;2023-02-25T07:24:10;1.10;;;1.00;;
15878;SDS011;61999;51.514;14.614;2023-02-25T07:26:39;0.80;;;0.80;;
15878;SDS011;61999;51.514;14.614;2023-02-25T07:29:08;0.97;;;0.97;;
15878;SDS011;61999;51.514;14.614;2023-02-25T07:31:36;1.30;;;0.77;;
15878;SDS011;61999;51.514;14.614;2023-02-25T07:34:04;0.77;;;0.77;;
15878;SDS011;61999;51.514;14.614;2023-02-25T07:36:33;2.10;;;0.90;;
15878;SDS011;61999;51.514;14.614;2023-02-25T07:39:03;0.77;;;0.77;;
15878;SDS011;61999;51.514;14.614;2023-02-25T07:41:34;1.00;;;0.90;;
15878;SDS011;61999;51.514;14.614;2023-02-25T07:44:03;0.90;;;0.90;;
15878;SDS011;61999;51.514;14.614;2023-02-25T07:46:34;0.80;;;0.80;;
15878;SDS011;61999;51.514;14.614;2023-02-25T07:49:04;2.87;;;1.30;;
15878;SDS011;61999;51.514;14.614;2023-02-25T07:51:31;2.20;;;1.07;;
15878;SDS011;61999;51.514;14.614;2023-02-25T07:54:00;0.70;;;0.70;;
15878;SDS011;61999;51.514;14.614;2023-02-25T07:56:28;3.57;;;1.07;;
15878;SDS011;61999;51.514;14.614;2023-02-25T07:58:57;0.67;;;0.63;;
15878;SDS011;61999;51.514;14.614;2023-02-25T08:01:27;0.90;;;0.90;;
15878;SDS011;61999;51.514;14.614;2023-02-25T08:04:01;5.87;;;2.00;;
15878;SDS011;61999;51.514;14.614;2023-02-25T08:06:31;0.90;;;0.90;;
15878;SDS011;61999;51.514;14.614;2023-02-25T08:09:03;9.90;;;2.90;;
15878;SDS011;61999;51.514;14.614;2023-02-25T08:11:32;8.63;;;2.50;;
15878;SDS011;61999;51.514;14.614;2023-02-25T08:14:00;0.90;;;0.90;;
15878;SDS011;61999;51.514;14.614;2023-02-25T08:16:28;1.10;;;0.90;;
15878;SDS011;61999;51.514;14.614;2023-02-25T08:18:57;0.43;;;0.43;;
15878;SDS011;61999;51.514;14.614;2023-02-25T08:21:26;0.67;;;0.67;;
15878;SDS011;61999;51.514;14.614;2023-02-25T08:23:55;1.60;;;0.80;;
15878;SDS011;61999;51.514;14.614;2023-02-25T08:26:24;1.30;;;0.87;;
15878;SDS011;61999;51.514;14.614;2023-02-25T08:28:52;0.70;;;0.70;;
15878;SDS011;61999;51.514;14.614;2023-02-25T08:31:23;6.43;;;1.90;;
15878;SDS011;61999;51.514;14.614;2023-02-25T08:33:51;1.13;;;1.07;;
15878;SDS011;61999;51.514;14.614;2023-02-25T08:36:20;0.60;;;0.60;;
15878;SDS011;61999;51.514;14.614;2023-02-25T08:38:53;0.70;;;0.70;;
15878;SDS011;61999;51.514;14.614;2023-02-25T08:41:24;1.43;;;0.87;;
15878;SDS011;61999;51.514;14.614;2023-02-25T08:43:55;0.70;;;0.70;;
15878;SDS011;61999;51.514;14.614;2023-02-25T08:46:26;3.43;;;2.10;;
15878;SDS011;61999;51.514;14.614;2023-02-25T08:48:56;1.80;;;0.90;;
15878;SDS011;61999;51.514;14.614;2023-02-25T08:51:26;5.33;;;2.07;;
15878;SDS011;61999;51.514;14.614;2023-02-25T08:54:01;0.90;;;0.90;;
15878;SDS011;61999;51.514;14.614;2023-02-25T08:56:32;1.50;;;1.40;;
15878;SDS011;61999;51.514;14.614;2023-02-25T08:59:01;0.50;;;0.50;;
15878;SDS011;61999;51.514;14.614;2023-02-25T09:01:30;3.67;;;2.10;;
15878;SDS011;61999;51.514;14.614;2023-02-25T09:04:09;3.33;;;1.23;;
15878;SDS011;61999;51.514;14.614;2023-02-25T09:06:38;0.50;;;0.50;;
15878;SDS011;61999;51.514;14.614;2023-02-25T09:09:08;3.43;;;1.87;;
15878;SDS011;61999;51.514;14.614;2023-02-25T09:11:38;1.10;;;0.70;;
15878;SDS011;61999;51.514;14.614;2023-02-25T09:14:07;2.40;;;1.33;;
15878;SDS011;61999;51.514;14.614;2023-02-25T09:16:36;0.83;;;0.83;;
15878;SDS011;61999;51.514;14.614;2023-02-25T09:19:04;0.80;;;0.80;;
15878;SDS011;61999;51.514;14.614;2023-02-25T09:21:32;3.60;;;1.73;;
15878;SDS011;61999;51.514;14.614;2023-02-25T09:24:01;1.27;;;1.17;;
15878;SDS011;61999;51.514;14.614;2023-02-25T09:26:31;1.27;;;1.17;;
15878;SDS011;61999;51.514;14.614;2023-02-25T09:29:00;1.13;;;0.90;;
15878;SDS011;61999;51.514;14.614;2023-02-25T09:31:30;1.70;;;1.60;;
15878;SDS011;61999;51.514;14.614;2023-02-25T09:34:00;3.67;;;2.90;;
15878;SDS011;61999;51.514;14.614;2023-02-25T09:36:31;5.57;;;3.10;;
15878;SDS011;61999;51.514;14.614;2023-02-25T09:39:00;2.17;;;1.87;;
15878;SDS011;61999;51.514;14.614;2023-02-25T09:41:30;3.37;;;2.60;;
15878;SDS011;61999;51.514;14.614;2023-02-25T09:44:09;5.00;;;4.30;;
15878;SDS011;61999;51.514;14.614;2023-02-25T09:46:44;1.43;;;1.30;;
15878;SDS011;61999;51.514;14.614;2023-02-25T09:49:19;1.23;;;1.20;;
15878;SDS011;61999;51.514;14.614;2023-02-25T09:51:56;1.57;;;1.30;;
15878;SDS011;61999;51.514;14.614;2023-02-25T09:54:30;1.63;;;1.10;;
15878;SDS011;61999;51.514;14.614;2023-02-25T09:57:06;0.93;;;0.93;;
15878;SDS011;61999;51.514;14.614;2023-02-25T09:59:39;1.00;;;1.00;;
15878;SDS011;61999;51.514;14.614;2023-02-25T10:02:14;0.73;;;0.73;;
15878;SDS011;61999;51.514;14.614;2023-02-25T10:05:01;0.60;;;0.60;;
15878;SDS011;61999;51.514;14.614;2023-02-25T10:07:50;1.80;;;0.80;;
15878;SDS011;61999;51.514;14.614;2023-02-25T10:10:58;1.20;;;1.10;;
15878;SDS011;61999;51.514;14.614;2023-02-25T10:13:59;0.50;;;0.50;;
15878;SDS011;61999;51.514;14.614;2023-02-25T10:16:45;0.83;;;0.83;;
15878;SDS011;61999;51.514;14.614;2023-02-25T10:19:29;0.80;;;0.80;;
15878;SDS011;61999;51.514;14.614;2023-02-25T10:22:24;0.43;;;0.43;;
15878;SDS011;61999;51.514;14.614;2023-02-25T10:25:09;0.80;;;0.80;;
15878;SDS011;61999;51.514;14.614;2023-02-25T10:27:44;1.87;;;1.40;;
15878;SDS011;61999;51.514;14.614;2023-02-25T10:30:24;0.73;;;0.73;;
15878;SDS011;61999;51.514;14.614;2023-02-25T10:33:02;0.97;;;0.90;;
15878;SDS011;61999;51.514;14.614;2023-02-25T10:35:39;1.20;;;1.00;;
15878;SDS011;61999;51.514;14.614;2023-02-25T10:38:08;1.00;;;1.00;;
15878;SDS011;61999;51.514;14.614;2023-02-25T10:40:37;1.43;;;1.33;;
15878;SDS011;61999;51.514;14.614;2023-02-25T10:43:09;1.40;;;1.10;;
15878;SDS011;61999;51.514;14.614;2023-02-25T10:45:50;1.57;;;1.10;;
15878;SDS011;61999;51.514;14.614;2023-02-25T10:48:26;1.53;;;1.43;;
15878;SDS011;61999;51.514;14.614;2023-02-25T10:51:00;1.40;;;1.23;;
15878;SDS011;61999;51.514;14.614;2023-02-25T10:53:34;1.17;;;1.07;;
15878;SDS011;61999;51.514;14.614;2023-02-25T10:56:03;1.10;;;0.90;;
15878;SDS011;61999;51.514;14.614;2023-02-25T10:58:36;1.10;;;0.83;;
15878;SDS011;61999;51.514;14.614;2023-02-25T11:01:12;1.73;;;1.43;;
15878;SDS011;61999;51.514;14.614;2023-02-25T11:03:45;0.83;;;0.83;;
15878;SDS011;61999;51.514;14.614;2023-02-25T11:06:24;0.70;;;0.70;;
15878;SDS011;61999;51.514;14.614;2023-02-25T11:08:56;1.40;;;1.30;;
15878;SDS011;61999;51.514;14.614;2023-02-25T11:11:26;2.23;;;1.37;;
15878;SDS011;61999;51.514;14.614;2023-02-25T11:13:58;1.00;;;1.00;;
15878;SDS011;61999;51.514;14.614;2023-02-25T11:16:32;2.30;;;1.23;;
15878;SDS011;61999;51.514;14.614;2023-02-25T11:19:08;1.07;;;1.07;;
15878;SDS011;61999;51.514;14.614;2023-02-25T11:21:41;1.23;;;1.13;;
15878;SDS011;61999;51.514;14.614;2023-02-25T11:24:11;1.40;;;1.30;;
15878;SDS011;61999;51.514;14.614;2023-02-25T11:26:43;1.43;;;1.20;;
15878;SDS011;61999;51.514;14.614;2023-02-25T11:29:22;1.33;;;1.23;;
15878;SDS011;61999;51.514;14.614;2023-02-25T11:32:01;1.30;;;1.20;;
15878;SDS011;61999;51.514;14.614;2023-02-25T11:34:42;1.47;;;1.13;;
15878;SDS011;61999;51.514;14.614;2023-02-25T11:37:21;1.87;;;1.77;;
15878;SDS011;61999;51.514;14.614;2023-02-25T11:40:18;2.80;;;1.40;;
15878;SDS011;61999;51.514;14.614;2023-02-25T11:43:00;1.40;;;1.30;;
15878;SDS011;61999;51.514;14.614;2023-02-25T11:45:47;1.20;;;1.10;;
15878;SDS011;61999;51.514;14.614;2023-02-25T11:48:23;1.20;;;1.10;;
15878;SDS011;61999;51.514;14.614;2023-02-25T11:50:59;1.27;;;1.17;;
15878;SDS011;61999;51.514;14.614;2023-02-25T11:53:43;1.53;;;1.33;;
15878;SDS011;61999;51.514;14.614;2023-02-25T11:56:30;0.70;;;0.70;;
15878;SDS011;61999;51.514;14.614;2023-02-25T11:59:05;0.93;;;0.90;;
15878;SDS011;61999;51.514;14.614;2023-02-25T12:01:58;1.03;;;1.03;;
15878;SDS011;61999;51.514;14.614;2023-02-25T12:04:58;1.40;;;1.30;;
15878;SDS011;61999;51.514;14.614;2023-02-25T12:11:06;1.67;;;1.30;;
15878;SDS011;61999;51.514;14.614;2023-02-25T12:17:36;1.30;;;1.30;;
15878;SDS011;61999;51.514;14.614;2023-02-25T12:24:13;1.70;;;1.60;;
15878;SDS011;61999;51.514;14.614;2023-02-25T12:27:15;1.60;;;1.50;;
15878;SDS011;61999;51.514;14.614;2023-02-25T12:30:26;1.10;;;0.83;;
15878;SDS011;61999;51.514;14.614;2023-02-25T12:33:43;1.23;;;1.20;;
15878;SDS011;61999;51.514;14.614;2023-02-25T12:36:43;1.67;;;1.57;;
15878;SDS011;61999;51.514;14.614;2023-02-25T12:39:32;0.90;;;0.90;;
15878;SDS011;61999;51.514;14.614;2023-02-25T12:42:19;1.60;;;1.50;;
15878;SDS011;61999;51.514;14.614;2023-02-25T12:45:21;1.83;;;1.73;;
15878;SDS011;61999;51.514;14.614;2023-02-25T12:48:23;2.10;;;1.90;;
15878;SDS011;61999;51.514;14.614;2023-02-25T12:51:28;1.30;;;1.20;;
15878;SDS011;61999;51.514;14.614;2023-02-25T12:54:18;0.90;;;0.90;;
15878;SDS011;61999;51.514;14.614;2023-02-25T12:57:20;1.70;;;1.60;;
15878;SDS011;61999;51.514;14.614;2023-02-25T13:09:27;1.40;;;1.30;;
15878;SDS011;61999;51.514;14.614;2023-02-25T13:12:35;1.80;;;1.40;;
15878;SDS011;61999;51.514;14.614;2023-02-25T13:15:30;1.60;;;1.27;;
15878;SDS011;61999;51.514;14.614;2023-02-25T13:18:18;0.97;;;0.97;;
15878;SDS011;61999;51.514;14.614;2023-02-25T13:24:23;1.60;;;1.50;;
15878;SDS011;61999;51.514;14.614;2023-02-25T13:27:12;1.90;;;1.70;;
15878;SDS011;61999;51.514;14.614;2023-02-25T13:30:12;1.60;;;1.50;;
15878;SDS011;61999;51.514;14.614;2023-02-25T13:33:07;1.60;;;1.40;;
15878;SDS011;61999;51.514;14.614;2023-02-25T13:36:18;5.07;;;3.97;;
15878;SDS011;61999;51.514;14.614;2023-02-25T13:42:17;3.30;;;2.97;;
15878;SDS011;61999;51.514;14.614;2023-02-25T13:48:44;3.87;;;2.90;;
15878;SDS011;61999;51.514;14.614;2023-02-25T13:51:39;4.07;;;3.37;;
15878;SDS011;61999;51.514;14.614;2023-02-25T13:54:33;5.37;;;4.30;;
15878;SDS011;61999;51.514;14.614;2023-02-25T13:57:32;4.27;;;3.50;;
15878;SDS011;61999;51.514;14.614;2023-02-25T14:07:21;2.20;;;2.00;;
15878;SDS011;61999;51.514;14.614;2023-02-25T14:10:17;3.03;;;2.43;;
15878;SDS011;61999;51.514;14.614;2023-02-25T14:16:17;2.33;;;2.03;;
15878;SDS011;61999;51.514;14.614;2023-02-25T14:19:04;4.33;;;3.50;;
15878;SDS011;61999;51.514;14.614;2023-02-25T14:22:11;3.23;;;3.00;;
15878;SDS011;61999;51.514;14.614;2023-02-25T14:25:19;7.57;;;5.37;;
15878;SDS011;61999;51.514;14.614;2023-02-25T14:28:06;5.10;;;4.43;;
15878;SDS011;61999;51.514;14.614;2023-02-25T14:30:50;5.40;;;4.20;;
15878;SDS011;61999;51.514;14.614;2023-02-25T14:33:38;3.13;;;2.50;;
15878;SDS011;61999;51.514;14.614;2023-02-25T14:36:44;2.23;;;2.03;;
15878;SDS011;61999;51.514;14.614;2023-02-25T14:39:29;1.77;;;1.67;;
15878;SDS011;61999;51.514;14.614;2023-02-25T14:42:13;3.90;;;3.60;;
15878;SDS011;61999;51.514;14.614;2023-02-25T14:45:00;1.90;;;1.30;;
15878;SDS011;61999;51.514;14.614;2023-02-25T14:47:44;1.40;;;1.30;;
15878;SDS011;61999;51.514;14.614;2023-02-25T14:50:24;1.83;;;1.73;;
15878;SDS011;61999;51.514;14.614;2023-02-25T14:53:10;2.40;;;2.20;;
15878;SDS011;61999;51.514;14.614;2023-02-25T14:59:37;1.90;;;1.80;;
15878;SDS011;61999;51.514;14.614;2023-02-25T15:02:20;4.30;;;3.90;;
15878;SDS011;61999;51.514;14.614;2023-02-25T15:05:23;4.10;;;3.27;;
15878;SDS011;61999;51.514;14.614;2023-02-25T15:08:23;3.67;;;3.33;;
15878;SDS011;61999;51.514;14.614;2023-02-25T15:11:22;2.40;;;1.97;;
15878;SDS011;61999;51.514;14.614;2023-02-25T15:14:16;4.43;;;3.50;;
15878;SDS011;61999;51.514;14.614;2023-02-25T15:17:40;2.40;;;2.20;;
15878;SDS011;61999;51.514;14.614;2023-02-25T15:20:35;2.60;;;1.90;;
15878;SDS011;61999;51.514;14.614;2023-02-25T15:23:07;3.10;;;2.40;;
15878;SDS011;61999;51.514;14.614;2023-02-25T15:25:38;3.43;;;3.00;;
15878;SDS011;61999;51.514;14.614;2023-02-25T15:28:32;2.00;;;1.80;;
15878;SDS011;61999;51.514;14.614;2023-02-25T15:31:22;2.33;;;2.10;;
15878;SDS011;61999;51.514;14.614;2023-02-25T15:37:24;1.80;;;1.70;;
15878;SDS011;61999;51.514;14.614;2023-02-25T15:40:00;2.50;;;2.30;;
15878;SDS011;61999;51.514;14.614;2023-02-25T15:49:19;3.13;;;2.40;;
15878;SDS011;61999;51.514;14.614;2023-02-25T15:51:57;3.83;;;2.50;;
15878;SDS011;61999;51.514;14.614;2023-02-25T15:57:33;2.03;;;1.87;;
15878;SDS011;61999;51.514;14.614;2023-02-25T16:00:08;2.20;;;2.00;;
15878;SDS011;61999;51.514;14.614;2023-02-25T16:06:10;2.50;;;2.27;;
15878;SDS011;61999;51.514;14.614;2023-02-25T16:08:51;5.63;;;3.93;;
15878;SDS011;61999;51.514;14.614;2023-02-25T16:11:30;4.17;;;3.30;;
15878;SDS011;61999;51.514;14.614;2023-02-25T16:14:05;6.00;;;3.20;;
15878;SDS011;61999;51.514;14.614;2023-02-25T16:16:47;3.73;;;3.23;;
15878;SDS011;61999;51.514;14.614;2023-02-25T16:19:24;5.70;;;3.50;;
15878;SDS011;61999;51.514;14.614;2023-02-25T16:21:56;5.83;;;3.30;;
15878;SDS011;61999;51.514;14.614;2023-02-25T16:24:28;9.07;;;5.00;;
15878;SDS011;61999;51.514;14.614;2023-02-25T16:26:59;2.47;;;2.27;;